DLH413 KEWR-EDDM
Flight info
| Callsign | DLH413 |
|---|---|
| Flight time | N/A |
| Altitude | 37000 |
| Route | EWR5 MERIT DCT HFD DCT PUT DCT BOS DCT TUSKY N429A ELSIR/M084F390 DCT 50N050W 51N040W 53N030W 54N020W DCT DOGAL/N0475F390 DCT BEXET/N0479F410 DCT MORAG DCT NUCHU L607 KONAN UL607 SPI DCT MOVUM T109 HAREM T104 ELMOX T104 ROKIL ROKIL1B |
| Aircraft | A359/H-SADE2E3GHIJ1J2J3J4J5M1P2RWXYZ/LB1D1 |
Departure
| Time | 2026-04-24 08:19 |
|---|---|
| Airport | Newark Liberty International Airport (KEWR) |
Arrival
| Time | N/A |
|---|---|
| Airport | Munich Airport (EDDM) |
| Time | Latitude | Longitude | Altitude | Speed | Heading |
|---|---|---|---|---|---|
| 2026-04-24 08:00 | 40.69141 | -74.17367 | 37 ft | 0 kts | 321° |
| 2026-04-24 08:10 | 40.69135 | -74.17361 | 27 ft | 2 kts | 318° |
| 2026-04-24 08:10 | 40.69122 | -74.17342 | 27 ft | 3 kts | 299° |
| 2026-04-24 08:10 | 40.69114 | -74.17318 | 27 ft | 3 kts | 283° |
| 2026-04-24 08:10 | 40.69110 | -74.17292 | 25 ft | 3 kts | 285° |
| 2026-04-24 08:11 | 40.69103 | -74.17267 | 26 ft | 3 kts | 292° |
| 2026-04-24 08:11 | 40.69098 | -74.17244 | 26 ft | 3 kts | 260° |
| 2026-04-24 08:11 | 40.69103 | -74.17230 | 25 ft | 2 kts | 206° |
| 2026-04-24 08:11 | 40.69114 | -74.17222 | 25 ft | 3 kts | 204° |
| 2026-04-24 08:12 | 40.69132 | -74.17212 | 27 ft | 3 kts | 205° |
| 2026-04-24 08:12 | 40.69140 | -74.17207 | 27 ft | 1 kts | 206° |
| 2026-04-24 08:14 | 40.69136 | -74.17210 | 27 ft | 3 kts | 206° |
| 2026-04-24 08:14 | 40.69099 | -74.17234 | 26 ft | 9 kts | 206° |
| 2026-04-24 08:14 | 40.69026 | -74.17262 | 28 ft | 11 kts | 161° |
| 2026-04-24 08:14 | 40.68975 | -74.17209 | 28 ft | 6 kts | 180° |
| 2026-04-24 08:15 | 40.68915 | -74.17231 | 28 ft | 12 kts | 204° |
| 2026-04-24 08:15 | 40.68826 | -74.17287 | 29 ft | 17 kts | 206° |
| 2026-04-24 08:15 | 40.68750 | -74.17335 | 28 ft | 20 kts | 206° |
| 2026-04-24 08:15 | 40.68615 | -74.17421 | 29 ft | 22 kts | 206° |
| 2026-04-24 08:16 | 40.68472 | -74.17512 | 29 ft | 23 kts | 206° |
| 2026-04-24 08:16 | 40.68324 | -74.17607 | 28 ft | 24 kts | 206° |
| 2026-04-24 08:16 | 40.68171 | -74.17704 | 28 ft | 25 kts | 206° |
| 2026-04-24 08:16 | 40.68015 | -74.17803 | 28 ft | 25 kts | 206° |
| 2026-04-24 08:17 | 40.67858 | -74.17903 | 29 ft | 25 kts | 205° |
| 2026-04-24 08:17 | 40.67698 | -74.18004 | 28 ft | 26 kts | 206° |
| 2026-04-24 08:17 | 40.67597 | -74.18035 | 28 ft | 12 kts | 148° |
| 2026-04-24 08:17 | 40.67572 | -74.17939 | 29 ft | 11 kts | 64° |
| 2026-04-24 08:18 | 40.67651 | -74.17874 | 28 ft | 28 kts | 26° |
| 2026-04-24 08:18 | 40.68038 | -74.17628 | 27 ft | 93 kts | 26° |
| 2026-04-24 08:18 | 40.68797 | -74.17146 | 30 ft | 147 kts | 26° |
| 2026-04-24 08:18 | 40.69820 | -74.16479 | 363 ft | 165 kts | 25° |
| 2026-04-24 08:19 | 40.70777 | -74.15721 | 1081 ft | 160 kts | 38° |
| 2026-04-24 08:19 | 40.71614 | -74.14769 | 1753 ft | 158 kts | 38° |
| 2026-04-24 08:19 | 40.72469 | -74.13793 | 2202 ft | 171 kts | 37° |
| 2026-04-24 08:19 | 40.73428 | -74.12699 | 2416 ft | 194 kts | 37° |
| 2026-04-24 08:20 | 40.74565 | -74.11541 | 2580 ft | 218 kts | 26° |
| 2026-04-24 08:20 | 40.76087 | -74.11113 | 2824 ft | 235 kts | 356° |
| 2026-04-24 08:20 | 40.77751 | -74.11261 | 3387 ft | 243 kts | 356° |
| 2026-04-24 08:20 | 40.79445 | -74.10969 | 4010 ft | 252 kts | 14° |
| 2026-04-24 08:21 | 40.81004 | -74.09792 | 4567 ft | 267 kts | 36° |
| 2026-04-24 08:21 | 40.82363 | -74.08052 | 5103 ft | 278 kts | 43° |
| 2026-04-24 08:21 | 40.83626 | -74.06062 | 5664 ft | 287 kts | 47° |
| 2026-04-24 08:21 | 40.84850 | -74.03938 | 6268 ft | 294 kts | 49° |
| 2026-04-24 08:22 | 40.86079 | -74.01747 | 6905 ft | 299 kts | 48° |
| 2026-04-24 08:22 | 40.87316 | -73.99555 | 7763 ft | 297 kts | 45° |
| 2026-04-24 08:22 | 40.88565 | -73.97385 | 8565 ft | 296 kts | 44° |
| 2026-04-24 08:22 | 40.89829 | -73.95232 | 9375 ft | 297 kts | 43° |
| 2026-04-24 08:23 | 40.91111 | -73.93080 | 10113 ft | 300 kts | 42° |
| 2026-04-24 08:23 | 40.92451 | -73.90870 | 10435 ft | 317 kts | 41° |
| 2026-04-24 08:23 | 40.93879 | -73.88539 | 10706 ft | 336 kts | 42° |
| 2026-04-24 08:23 | 40.95388 | -73.86066 | 11032 ft | 353 kts | 42° |
| 2026-04-24 08:24 | 40.96940 | -73.83494 | 11583 ft | 361 kts | 43° |
| 2026-04-24 08:24 | 40.98498 | -73.80879 | 12300 ft | 363 kts | 43° |
| 2026-04-24 08:24 | 41.00063 | -73.78240 | 13032 ft | 365 kts | 42° |
| 2026-04-24 08:24 | 41.01634 | -73.75588 | 13773 ft | 367 kts | 42° |
| 2026-04-24 08:25 | 41.03216 | -73.72924 | 14392 ft | 369 kts | 42° |
| 2026-04-24 08:25 | 41.04819 | -73.70235 | 14918 ft | 374 kts | 41° |
| 2026-04-24 08:25 | 41.06433 | -73.67526 | 15539 ft | 375 kts | 41° |
| 2026-04-24 08:25 | 41.08056 | -73.64802 | 16175 ft | 378 kts | 41° |
| 2026-04-24 08:26 | 41.09697 | -73.62049 | 16717 ft | 382 kts | 41° |
| 2026-04-24 08:26 | 41.11349 | -73.59275 | 17291 ft | 385 kts | 41° |
| 2026-04-24 08:26 | 41.13014 | -73.56475 | 17909 ft | 388 kts | 41° |
| 2026-04-24 08:26 | 41.14688 | -73.53655 | 18470 ft | 390 kts | 41° |
| 2026-04-24 08:27 | 41.16373 | -73.50814 | 18965 ft | 394 kts | 41° |
| 2026-04-24 08:27 | 41.18080 | -73.47936 | 19444 ft | 399 kts | 41° |
| 2026-04-24 08:27 | 41.19804 | -73.45028 | 19956 ft | 403 kts | 41° |
| 2026-04-24 08:27 | 41.21543 | -73.42088 | 20494 ft | 407 kts | 41° |
| 2026-04-24 08:28 | 41.23300 | -73.39116 | 20979 ft | 412 kts | 41° |
| 2026-04-24 08:28 | 41.25076 | -73.36109 | 21473 ft | 416 kts | 42° |
| 2026-04-24 08:28 | 41.26870 | -73.33067 | 21970 ft | 420 kts | 42° |
| 2026-04-24 08:28 | 41.28674 | -73.30004 | 22509 ft | 423 kts | 42° |
| 2026-04-24 08:29 | 41.30500 | -73.26902 | 22936 ft | 429 kts | 41° |
| 2026-04-24 08:29 | 41.32351 | -73.23760 | 23389 ft | 433 kts | 41° |
| 2026-04-24 08:29 | 41.34213 | -73.20591 | 23810 ft | 437 kts | 41° |
| 2026-04-24 08:29 | 41.36087 | -73.17394 | 24262 ft | 439 kts | 41° |
| 2026-04-24 08:30 | 41.37916 | -73.14102 | 24728 ft | 447 kts | 46° |
| 2026-04-24 08:30 | 41.39593 | -73.10592 | 25227 ft | 451 kts | 48° |
| 2026-04-24 08:30 | 41.41233 | -73.07009 | 25670 ft | 455 kts | 49° |
| 2026-04-24 08:30 | 41.42854 | -73.03372 | 26091 ft | 458 kts | 49° |
| 2026-04-24 08:31 | 41.44470 | -72.99696 | 26532 ft | 461 kts | 50° |
| 2026-04-24 08:31 | 41.46088 | -72.95998 | 26960 ft | 463 kts | 50° |
| 2026-04-24 08:31 | 41.47715 | -72.92280 | 27389 ft | 467 kts | 49° |
| 2026-04-24 08:31 | 41.49362 | -72.88526 | 27734 ft | 471 kts | 49° |
| 2026-04-24 08:32 | 41.51020 | -72.84747 | 28158 ft | 473 kts | 49° |
| 2026-04-24 08:32 | 41.52680 | -72.80959 | 28575 ft | 475 kts | 49° |
| 2026-04-24 08:32 | 41.54351 | -72.77144 | 28962 ft | 477 kts | 49° |
| 2026-04-24 08:32 | 41.56031 | -72.73307 | 29345 ft | 480 kts | 49° |
| 2026-04-24 08:33 | 41.57719 | -72.69448 | 29737 ft | 482 kts | 49° |
| 2026-04-24 08:33 | 41.59414 | -72.65568 | 30067 ft | 485 kts | 49° |
| 2026-04-24 08:33 | 41.61115 | -72.61669 | 30367 ft | 487 kts | 49° |
| 2026-04-24 08:33 | 41.62828 | -72.57742 | 30638 ft | 491 kts | 49° |
| 2026-04-24 08:34 | 41.64555 | -72.53779 | 30834 ft | 495 kts | 49° |
| 2026-04-24 08:34 | 41.66314 | -72.49814 | 31099 ft | 496 kts | 48° |
| 2026-04-24 08:34 | 41.68099 | -72.45853 | 31392 ft | 498 kts | 47° |
| 2026-04-24 08:34 | 41.69901 | -72.41882 | 31659 ft | 500 kts | 47° |
| 2026-04-24 08:35 | 41.71710 | -72.37892 | 31916 ft | 503 kts | 47° |
| 2026-04-24 08:35 | 41.73524 | -72.33882 | 32162 ft | 505 kts | 48° |
| 2026-04-24 08:35 | 41.75342 | -72.29847 | 32411 ft | 507 kts | 48° |
| 2026-04-24 08:35 | 41.77162 | -72.25795 | 32624 ft | 509 kts | 48° |
| 2026-04-24 08:36 | 41.78989 | -72.21715 | 32861 ft | 512 kts | 48° |
| 2026-04-24 08:36 | 41.80822 | -72.17615 | 33051 ft | 514 kts | 48° |
| 2026-04-24 08:36 | 41.82659 | -72.13496 | 33371 ft | 514 kts | 47° |
| 2026-04-24 08:36 | 41.84484 | -72.09388 | 33802 ft | 512 kts | 47° |
| 2026-04-24 08:37 | 41.86301 | -72.05290 | 34115 ft | 510 kts | 47° |
| 2026-04-24 08:37 | 41.88114 | -72.01203 | 34399 ft | 509 kts | 47° |
| 2026-04-24 08:37 | 41.89924 | -71.97123 | 34669 ft | 508 kts | 47° |
| 2026-04-24 08:37 | 41.91730 | -71.93049 | 34938 ft | 507 kts | 47° |
| 2026-04-24 08:38 | 41.93529 | -71.88985 | 35212 ft | 506 kts | 48° |
| 2026-04-24 08:38 | 41.95323 | -71.84929 | 35481 ft | 504 kts | 48° |
| 2026-04-24 08:38 | 41.97129 | -71.80904 | 35786 ft | 501 kts | 47° |
| 2026-04-24 08:38 | 41.98984 | -71.76956 | 36064 ft | 498 kts | 46° |
| 2026-04-24 08:39 | 42.00859 | -71.73060 | 36325 ft | 496 kts | 46° |
| 2026-04-24 08:39 | 42.02738 | -71.69178 | 36536 ft | 495 kts | 46° |
| 2026-04-24 08:39 | 42.04612 | -71.65293 | 36721 ft | 495 kts | 46° |
| 2026-04-24 08:39 | 42.06478 | -71.61401 | 36869 ft | 496 kts | 46° |
| 2026-04-24 08:40 | 42.08346 | -71.57486 | 36912 ft | 499 kts | 46° |
| 2026-04-24 08:40 | 42.12075 | -71.49608 | 36925 ft | 499 kts | 47° |
| 2026-04-24 08:41 | 42.15792 | -71.41707 | 36923 ft | 499 kts | 47° |
| 2026-04-24 08:41 | 42.19508 | -71.33792 | 36923 ft | 500 kts | 47° |
| 2026-04-24 08:42 | 42.23219 | -71.25867 | 36918 ft | 500 kts | 47° |
| 2026-04-24 08:42 | 42.26927 | -71.17934 | 36948 ft | 500 kts | 47° |
| 2026-04-24 08:43 | 42.30632 | -71.09984 | 36915 ft | 500 kts | 48° |
| 2026-04-24 08:43 | 42.34333 | -71.02020 | 36915 ft | 501 kts | 47° |
| 2026-04-24 08:44 | 42.37528 | -70.93523 | 36915 ft | 512 kts | 56° |
| 2026-04-24 08:44 | 42.40454 | -70.84652 | 36968 ft | 514 kts | 57° |
| 2026-04-24 08:45 | 42.43283 | -70.75848 | 36914 ft | 513 kts | 57° |
| 2026-04-24 08:45 | 42.46124 | -70.66991 | 36915 ft | 513 kts | 57° |
| 2026-04-24 08:46 | 42.48967 | -70.58140 | 36914 ft | 512 kts | 57° |
| 2026-04-24 08:46 | 42.51811 | -70.49278 | 36917 ft | 513 kts | 58° |
| 2026-04-24 08:47 | 42.54653 | -70.40397 | 36914 ft | 513 kts | 58° |
| 2026-04-24 08:47 | 42.57479 | -70.31522 | 36919 ft | 512 kts | 58° |
| 2026-04-24 08:48 | 42.60296 | -70.22651 | 36916 ft | 512 kts | 58° |
| 2026-04-24 08:48 | 42.63108 | -70.13772 | 36917 ft | 512 kts | 58° |
| 2026-04-24 08:49 | 42.65921 | -70.04865 | 36929 ft | 513 kts | 59° |
| 2026-04-24 08:49 | 42.68721 | -69.95955 | 36904 ft | 512 kts | 59° |
| 2026-04-24 08:50 | 42.71511 | -69.87051 | 36922 ft | 512 kts | 59° |
| 2026-04-24 08:50 | 42.74295 | -69.78139 | 36914 ft | 513 kts | 59° |
| 2026-04-24 08:51 | 42.77079 | -69.69199 | 36906 ft | 513 kts | 59° |
| 2026-04-24 08:51 | 42.79851 | -69.60261 | 36909 ft | 512 kts | 59° |
| 2026-04-24 08:52 | 42.82612 | -69.51326 | 36924 ft | 511 kts | 59° |
| 2026-04-24 08:52 | 42.85369 | -69.42383 | 36905 ft | 513 kts | 59° |
| 2026-04-24 08:53 | 42.88124 | -69.33413 | 36900 ft | 513 kts | 60° |
| 2026-04-24 08:53 | 42.90871 | -69.24433 | 36902 ft | 513 kts | 60° |
| 2026-04-24 08:54 | 42.93612 | -69.15443 | 36897 ft | 513 kts | 60° |
| 2026-04-24 08:54 | 42.96353 | -69.06428 | 36897 ft | 515 kts | 60° |
| 2026-04-24 08:55 | 42.99090 | -68.97390 | 36892 ft | 515 kts | 60° |
| 2026-04-24 08:55 | 43.01820 | -68.88342 | 36909 ft | 515 kts | 60° |
| 2026-04-24 08:56 | 43.04535 | -68.79307 | 36893 ft | 513 kts | 60° |
| 2026-04-24 08:56 | 43.06789 | -68.71790 | 36889 ft | 514 kts | 60° |
| 2026-04-24 08:57 | 43.09495 | -68.62736 | 36883 ft | 514 kts | 60° |
| 2026-04-24 08:57 | 43.12194 | -68.53673 | 36884 ft | 514 kts | 60° |
| 2026-04-24 08:58 | 43.14884 | -68.44604 | 36883 ft | 513 kts | 61° |
| 2026-04-24 08:58 | 43.17561 | -68.35546 | 36881 ft | 513 kts | 61° |
| 2026-04-24 08:59 | 43.20233 | -68.26479 | 36885 ft | 514 kts | 61° |
| 2026-04-24 08:59 | 43.22903 | -68.17388 | 36873 ft | 514 kts | 61° |
| 2026-04-24 09:00 | 43.25567 | -68.08281 | 36866 ft | 514 kts | 62° |
| 2026-04-24 09:00 | 43.28214 | -67.99194 | 36868 ft | 513 kts | 62° |
| 2026-04-24 09:01 | 43.30853 | -67.90106 | 36866 ft | 512 kts | 62° |
| 2026-04-24 09:01 | 43.33484 | -67.81014 | 36879 ft | 512 kts | 62° |
| 2026-04-24 09:02 | 43.36110 | -67.71910 | 36895 ft | 513 kts | 62° |
| 2026-04-24 09:02 | 43.38729 | -67.62793 | 36861 ft | 512 kts | 63° |
| 2026-04-24 09:03 | 43.41334 | -67.53688 | 36862 ft | 512 kts | 63° |
| 2026-04-24 09:03 | 43.43933 | -67.44578 | 36863 ft | 512 kts | 63° |
| 2026-04-24 09:04 | 43.46525 | -67.35458 | 36854 ft | 512 kts | 63° |
| 2026-04-24 09:04 | 43.49093 | -67.26390 | 36856 ft | 511 kts | 63° |
| 2026-04-24 09:05 | 43.51668 | -67.17260 | 36854 ft | 511 kts | 63° |
| 2026-04-24 09:05 | 43.54236 | -67.08124 | 36851 ft | 511 kts | 63° |
| 2026-04-24 09:06 | 43.57115 | -66.99231 | 36842 ft | 503 kts | 53° |
| 2026-04-24 09:06 | 43.60943 | -66.91215 | 36846 ft | 499 kts | 50° |
| 2026-04-24 09:07 | 43.64958 | -66.83328 | 36838 ft | 498 kts | 49° |
| 2026-04-24 09:07 | 43.70935 | -66.71653 | 36828 ft | 498 kts | 50° |
| 2026-04-24 09:08 | 43.74919 | -66.63798 | 36835 ft | 499 kts | 50° |
| 2026-04-24 09:08 | 43.78888 | -66.55929 | 36824 ft | 498 kts | 51° |
| 2026-04-24 09:09 | 43.82847 | -66.48059 | 36814 ft | 498 kts | 51° |
| 2026-04-24 09:09 | 43.86799 | -66.40181 | 36826 ft | 498 kts | 51° |
| 2026-04-24 09:10 | 43.90747 | -66.32293 | 36800 ft | 497 kts | 51° |
| 2026-04-24 09:10 | 43.94680 | -66.24413 | 36800 ft | 497 kts | 51° |
| 2026-04-24 09:11 | 43.98606 | -66.16526 | 36804 ft | 497 kts | 51° |
| 2026-04-24 09:11 | 44.02526 | -66.08630 | 36804 ft | 496 kts | 52° |
| 2026-04-24 09:12 | 44.06437 | -66.00731 | 36818 ft | 496 kts | 52° |
| 2026-04-24 09:12 | 44.10339 | -65.92827 | 36800 ft | 496 kts | 52° |
| 2026-04-24 09:13 | 44.14240 | -65.84906 | 36799 ft | 496 kts | 52° |
| 2026-04-24 09:13 | 44.18133 | -65.76979 | 36798 ft | 496 kts | 52° |
| 2026-04-24 09:14 | 44.22021 | -65.69039 | 36799 ft | 496 kts | 52° |
| 2026-04-24 09:14 | 44.25904 | -65.61088 | 36798 ft | 496 kts | 52° |
| 2026-04-24 09:15 | 44.29781 | -65.53129 | 36803 ft | 496 kts | 52° |
| 2026-04-24 09:15 | 44.33648 | -65.45166 | 36800 ft | 495 kts | 52° |
| 2026-04-24 09:16 | 44.37508 | -65.37196 | 36795 ft | 495 kts | 52° |
| 2026-04-24 09:16 | 44.41362 | -65.29218 | 36795 ft | 495 kts | 52° |
| 2026-04-24 09:17 | 44.45211 | -65.21229 | 36802 ft | 495 kts | 53° |
| 2026-04-24 09:17 | 44.49048 | -65.13241 | 36795 ft | 494 kts | 53° |
| 2026-04-24 09:18 | 44.52877 | -65.05247 | 36791 ft | 494 kts | 53° |
| 2026-04-24 09:18 | 44.56701 | -64.97243 | 36800 ft | 494 kts | 53° |
| 2026-04-24 09:19 | 44.60514 | -64.89239 | 36786 ft | 493 kts | 53° |
| 2026-04-24 09:19 | 44.64314 | -64.81239 | 36786 ft | 492 kts | 54° |
| 2026-04-24 09:20 | 44.68109 | -64.73230 | 36786 ft | 492 kts | 54° |
| 2026-04-24 09:20 | 44.71898 | -64.65210 | 36788 ft | 492 kts | 54° |
| 2026-04-24 09:21 | 44.75675 | -64.57193 | 36768 ft | 491 kts | 54° |
| 2026-04-24 09:21 | 44.79442 | -64.49176 | 36778 ft | 491 kts | 54° |
| 2026-04-24 09:22 | 44.83208 | -64.41137 | 36780 ft | 492 kts | 54° |
| 2026-04-24 09:22 | 44.86969 | -64.33087 | 36780 ft | 491 kts | 54° |
| 2026-04-24 09:23 | 44.90716 | -64.25043 | 36783 ft | 490 kts | 55° |
| 2026-04-24 09:23 | 44.94457 | -64.16991 | 36782 ft | 490 kts | 55° |
| 2026-04-24 09:24 | 44.98191 | -64.08932 | 36784 ft | 490 kts | 55° |
| 2026-04-24 09:24 | 45.01916 | -64.00868 | 36778 ft | 490 kts | 55° |
| 2026-04-24 09:25 | 45.05633 | -63.92798 | 36783 ft | 490 kts | 55° |
| 2026-04-24 09:25 | 45.09344 | -63.84720 | 36781 ft | 490 kts | 55° |
| 2026-04-24 09:26 | 45.13050 | -63.76629 | 36793 ft | 490 kts | 55° |
| 2026-04-24 09:26 | 45.16775 | -63.68474 | 36778 ft | 490 kts | 56° |
| 2026-04-24 09:27 | 45.20469 | -63.60363 | 36783 ft | 490 kts | 56° |
| 2026-04-24 09:27 | 45.24134 | -63.52291 | 36783 ft | 490 kts | 56° |
| 2026-04-24 09:28 | 45.27817 | -63.44159 | 36781 ft | 490 kts | 56° |
| 2026-04-24 09:28 | 45.31474 | -63.36062 | 36782 ft | 489 kts | 56° |
| 2026-04-24 09:29 | 45.35142 | -63.27913 | 36785 ft | 489 kts | 56° |
| 2026-04-24 09:29 | 45.38801 | -63.19764 | 36784 ft | 489 kts | 56° |
| 2026-04-24 09:30 | 45.42455 | -63.11602 | 36788 ft | 488 kts | 56° |
| 2026-04-24 09:30 | 45.46095 | -63.03448 | 36791 ft | 488 kts | 56° |
| 2026-04-24 09:31 | 45.49729 | -62.95284 | 36793 ft | 488 kts | 57° |
| 2026-04-24 09:31 | 45.53360 | -62.87101 | 36785 ft | 489 kts | 57° |
| 2026-04-24 09:32 | 45.56992 | -62.78895 | 36786 ft | 489 kts | 57° |
| 2026-04-24 09:32 | 45.60618 | -62.70678 | 36783 ft | 489 kts | 57° |
| 2026-04-24 09:33 | 45.64237 | -62.62451 | 36789 ft | 489 kts | 57° |
| 2026-04-24 09:33 | 45.67850 | -62.54215 | 36788 ft | 489 kts | 57° |
| 2026-04-24 09:34 | 45.71453 | -62.45978 | 36808 ft | 487 kts | 57° |
| 2026-04-24 09:34 | 45.75034 | -62.37775 | 36810 ft | 485 kts | 57° |
| 2026-04-24 09:35 | 45.78613 | -62.29571 | 36712 ft | 486 kts | 57° |
| 2026-04-24 09:35 | 45.82201 | -62.21350 | 36648 ft | 486 kts | 57° |
| 2026-04-24 09:36 | 45.85785 | -62.13150 | 36722 ft | 484 kts | 57° |
| 2026-04-24 09:36 | 45.89359 | -62.04972 | 36631 ft | 485 kts | 57° |
| 2026-04-24 09:37 | 45.92955 | -61.96754 | 36524 ft | 486 kts | 57° |
| 2026-04-24 09:37 | 45.96558 | -61.88549 | 36552 ft | 484 kts | 57° |
| 2026-04-24 09:38 | 46.00152 | -61.80394 | 36622 ft | 482 kts | 57° |
| 2026-04-24 09:38 | 46.03751 | -61.72261 | 36532 ft | 483 kts | 57° |
| 2026-04-24 09:39 | 46.06767 | -61.65476 | 36435 ft | 484 kts | 57° |
| 2026-04-24 09:39 | 46.10405 | -61.57329 | 36459 ft | 483 kts | 57° |
| 2026-04-24 09:40 | 46.14039 | -61.49239 | 36556 ft | 479 kts | 57° |
| 2026-04-24 09:40 | 46.17679 | -61.41179 | 36508 ft | 480 kts | 57° |
| 2026-04-24 09:41 | 46.21353 | -61.33103 | 36376 ft | 482 kts | 56° |
| 2026-04-24 09:41 | 46.25045 | -61.25019 | 36396 ft | 481 kts | 57° |
| 2026-04-24 09:42 | 46.28725 | -61.16968 | 36455 ft | 479 kts | 57° |
| 2026-04-24 09:42 | 46.32415 | -61.08926 | 36400 ft | 480 kts | 57° |
| 2026-04-24 09:43 | 46.36129 | -61.00877 | 36338 ft | 481 kts | 56° |
| 2026-04-24 09:43 | 46.39864 | -60.92841 | 36376 ft | 480 kts | 56° |
| 2026-04-24 09:44 | 46.43606 | -60.84868 | 36459 ft | 478 kts | 56° |
| 2026-04-24 09:44 | 46.47376 | -60.76924 | 36402 ft | 479 kts | 56° |
| 2026-04-24 09:45 | 46.51191 | -60.68983 | 36308 ft | 480 kts | 55° |
| 2026-04-24 09:45 | 46.55038 | -60.61067 | 36385 ft | 478 kts | 55° |
| 2026-04-24 09:46 | 46.58891 | -60.53210 | 36456 ft | 477 kts | 55° |
| 2026-04-24 09:46 | 46.62766 | -60.45359 | 36380 ft | 479 kts | 55° |
| 2026-04-24 09:47 | 46.66668 | -60.37494 | 36325 ft | 479 kts | 54° |
| 2026-04-24 09:47 | 46.70584 | -60.29659 | 36428 ft | 477 kts | 54° |
| 2026-04-24 09:48 | 46.74474 | -60.21929 | 36432 ft | 477 kts | 54° |
| 2026-04-24 09:48 | 46.78421 | -60.14127 | 36294 ft | 479 kts | 54° |
| 2026-04-24 09:49 | 46.82399 | -60.06311 | 36300 ft | 479 kts | 54° |
| 2026-04-24 09:49 | 46.86377 | -59.98547 | 36430 ft | 476 kts | 54° |
| 2026-04-24 09:50 | 46.90359 | -59.90824 | 36398 ft | 477 kts | 54° |
| 2026-04-24 09:50 | 46.94380 | -59.83076 | 36287 ft | 479 kts | 53° |
| 2026-04-24 09:51 | 46.98426 | -59.75339 | 36318 ft | 478 kts | 53° |
| 2026-04-24 09:51 | 47.02477 | -59.67650 | 36413 ft | 476 kts | 53° |
| 2026-04-24 09:52 | 47.06545 | -59.59985 | 36338 ft | 477 kts | 53° |